sensor_id;sensor_type;location;lat;lon;timestamp;temperature;humidity
23873;DHT22;42884;50.718;4.630;2022-11-11T00:01:16;9.60;99.90
23873;DHT22;42884;50.718;4.630;2022-11-11T00:03:42;9.60;99.90
23873;DHT22;42884;50.718;4.630;2022-11-11T00:06:09;9.70;99.90
23873;DHT22;42884;50.718;4.630;2022-11-11T00:08:35;9.70;99.90
23873;DHT22;42884;50.718;4.630;2022-11-11T00:11:10;9.60;99.90
23873;DHT22;42884;50.718;4.630;2022-11-11T00:13:36;9.60;99.90
23873;DHT22;42884;50.718;4.630;2022-11-11T00:16:09;9.60;99.90
23873;DHT22;42884;50.718;4.630;2022-11-11T00:18:35;9.50;99.90
23873;DHT22;42884;50.718;4.630;2022-11-11T00:21:19;9.50;99.90
23873;DHT22;42884;50.718;4.630;2022-11-11T00:24:04;9.40;99.90
23873;DHT22;42884;50.718;4.630;2022-11-11T00:26:48;9.40;99.90
23873;DHT22;42884;50.718;4.630;2022-11-11T00:29:14;9.30;99.90
23873;DHT22;42884;50.718;4.630;2022-11-11T00:31:40;9.30;99.90
23873;DHT22;42884;50.718;4.630;2022-11-11T00:34:25;9.20;99.90
23873;DHT22;42884;50.718;4.630;2022-11-11T00:36:51;9.10;99.90
23873;DHT22;42884;50.718;4.630;2022-11-11T00:39:16;9.10;99.90
23873;DHT22;42884;50.718;4.630;2022-11-11T00:41:42;9.00;99.90
23873;DHT22;42884;50.718;4.630;2022-11-11T00:44:07;9.00;99.90
23873;DHT22;42884;50.718;4.630;2022-11-11T00:46:33;8.90;99.90
23873;DHT22;42884;50.718;4.630;2022-11-11T00:49:17;8.90;99.90
23873;DHT22;42884;50.718;4.630;2022-11-11T00:52:02;8.90;99.90
23873;DHT22;42884;50.718;4.630;2022-11-11T00:54:27;8.90;99.90
23873;DHT22;42884;50.718;4.630;2022-11-11T00:56:53;8.90;99.90
23873;DHT22;42884;50.718;4.630;2022-11-11T00:59:18;8.80;99.90
23873;DHT22;42884;50.718;4.630;2022-11-11T01:01:44;8.80;99.90
23873;DHT22;42884;50.718;4.630;2022-11-11T01:04:09;8.80;99.90
23873;DHT22;42884;50.718;4.630;2022-11-11T01:06:35;8.80;99.90
23873;DHT22;42884;50.718;4.630;2022-11-11T01:09:07;8.80;99.90
23873;DHT22;42884;50.718;4.630;2022-11-11T01:11:32;8.80;99.90
23873;DHT22;42884;50.718;4.630;2022-11-11T01:13:58;8.80;99.90
23873;DHT22;42884;50.718;4.630;2022-11-11T01:16:24;8.80;99.90
23873;DHT22;42884;50.718;4.630;2022-11-11T01:18:50;8.70;99.90
23873;DHT22;42884;50.718;4.630;2022-11-11T01:21:18;8.80;99.90
23873;DHT22;42884;50.718;4.630;2022-11-11T01:23:44;8.80;99.90
23873;DHT22;42884;50.718;4.630;2022-11-11T01:28:39;8.90;99.90
23873;DHT22;42884;50.718;4.630;2022-11-11T01:31:06;8.90;99.90
23873;DHT22;42884;50.718;4.630;2022-11-11T01:33:32;8.90;99.90
23873;DHT22;42884;50.718;4.630;2022-11-11T01:36:09;8.90;99.90
23873;DHT22;42884;50.718;4.630;2022-11-11T01:38:35;8.90;99.90
23873;DHT22;42884;50.718;4.630;2022-11-11T01:41:01;8.90;99.90
23873;DHT22;42884;50.718;4.630;2022-11-11T01:43:46;8.80;99.90
23873;DHT22;42884;50.718;4.630;2022-11-11T01:46:17;8.80;99.90
23873;DHT22;42884;50.718;4.630;2022-11-11T01:48:47;8.90;99.90
23873;DHT22;42884;50.718;4.630;2022-11-11T01:51:40;8.80;99.90
23873;DHT22;42884;50.718;4.630;2022-11-11T01:54:07;8.80;99.90
23873;DHT22;42884;50.718;4.630;2022-11-11T01:56:34;8.90;99.90
23873;DHT22;42884;50.718;4.630;2022-11-11T01:59:01;8.90;99.90
23873;DHT22;42884;50.718;4.630;2022-11-11T02:01:27;8.90;99.90
23873;DHT22;42884;50.718;4.630;2022-11-11T02:03:53;8.90;99.90
23873;DHT22;42884;50.718;4.630;2022-11-11T02:06:38;9.00;99.90
23873;DHT22;42884;50.718;4.630;2022-11-11T02:09:03;9.00;99.90
23873;DHT22;42884;50.718;4.630;2022-11-11T02:11:30;8.90;99.90
23873;DHT22;42884;50.718;4.630;2022-11-11T02:14:15;8.90;99.90
23873;DHT22;42884;50.718;4.630;2022-11-11T02:17:00;8.90;99.90
23873;DHT22;42884;50.718;4.630;2022-11-11T02:19:32;8.80;99.90
23873;DHT22;42884;50.718;4.630;2022-11-11T02:22:00;8.80;99.90
23873;DHT22;42884;50.718;4.630;2022-11-11T02:24:27;8.90;99.90
23873;DHT22;42884;50.718;4.630;2022-11-11T02:26:54;8.90;99.90
23873;DHT22;42884;50.718;4.630;2022-11-11T02:29:19;8.90;99.90
23873;DHT22;42884;50.718;4.630;2022-11-11T02:31:46;8.90;99.90
23873;DHT22;42884;50.718;4.630;2022-11-11T02:34:11;8.90;99.90
23873;DHT22;42884;50.718;4.630;2022-11-11T02:36:37;8.90;99.90
23873;DHT22;42884;50.718;4.630;2022-11-11T02:39:03;8.90;99.90
23873;DHT22;42884;50.718;4.630;2022-11-11T02:41:29;8.90;99.90
23873;DHT22;42884;50.718;4.630;2022-11-11T02:44:13;8.80;99.90
23873;DHT22;42884;50.718;4.630;2022-11-11T02:46:39;8.80;99.90
23873;DHT22;42884;50.718;4.630;2022-11-11T02:49:04;8.80;99.90
23873;DHT22;42884;50.718;4.630;2022-11-11T02:51:30;8.80;99.90
23873;DHT22;42884;50.718;4.630;2022-11-11T02:53:55;8.70;99.90
23873;DHT22;42884;50.718;4.630;2022-11-11T02:56:26;8.60;99.90
23873;DHT22;42884;50.718;4.630;2022-11-11T02:59:10;8.60;99.90
23873;DHT22;42884;50.718;4.630;2022-11-11T03:01:35;8.50;99.90
23873;DHT22;42884;50.718;4.630;2022-11-11T03:04:01;8.50;99.90
23873;DHT22;42884;50.718;4.630;2022-11-11T03:06:27;8.50;99.90
23873;DHT22;42884;50.718;4.630;2022-11-11T03:08:52;8.50;99.90
23873;DHT22;42884;50.718;4.630;2022-11-11T03:11:18;8.60;99.90
23873;DHT22;42884;50.718;4.630;2022-11-11T03:13:55;8.50;99.90
23873;DHT22;42884;50.718;4.630;2022-11-11T03:16:21;8.50;99.90
23873;DHT22;42884;50.718;4.630;2022-11-11T03:19:05;8.60;99.90
23873;DHT22;42884;50.718;4.630;2022-11-11T03:21:30;8.50;99.90
23873;DHT22;42884;50.718;4.630;2022-11-11T03:23:56;8.50;99.90
23873;DHT22;42884;50.718;4.630;2022-11-11T03:26:21;8.50;99.90
23873;DHT22;42884;50.718;4.630;2022-11-11T03:28:47;8.50;99.90
23873;DHT22;42884;50.718;4.630;2022-11-11T03:31:14;8.50;99.90
23873;DHT22;42884;50.718;4.630;2022-11-11T03:33:39;8.50;99.90
23873;DHT22;42884;50.718;4.630;2022-11-11T03:36:05;8.50;99.90
23873;DHT22;42884;50.718;4.630;2022-11-11T03:38:30;8.40;99.90
23873;DHT22;42884;50.718;4.630;2022-11-11T03:40:56;8.40;99.90
23873;DHT22;42884;50.718;4.630;2022-11-11T03:43:23;8.40;99.90
23873;DHT22;42884;50.718;4.630;2022-11-11T03:45:49;8.40;99.90
23873;DHT22;42884;50.718;4.630;2022-11-11T03:48:15;8.40;99.90
23873;DHT22;42884;50.718;4.630;2022-11-11T03:50:41;8.30;99.90
23873;DHT22;42884;50.718;4.630;2022-11-11T03:53:06;8.30;99.90
23873;DHT22;42884;50.718;4.630;2022-11-11T03:55:32;8.30;99.90
23873;DHT22;42884;50.718;4.630;2022-11-11T03:57:58;8.20;99.90
23873;DHT22;42884;50.718;4.630;2022-11-11T04:00:25;8.20;99.90
23873;DHT22;42884;50.718;4.630;2022-11-11T04:02:51;8.20;99.90
23873;DHT22;42884;50.718;4.630;2022-11-11T04:05:35;8.20;99.90
23873;DHT22;42884;50.718;4.630;2022-11-11T04:08:20;8.20;99.90
23873;DHT22;42884;50.718;4.630;2022-11-11T04:11:11;8.10;99.90
23873;DHT22;42884;50.718;4.630;2022-11-11T04:13:38;8.10;99.90
23873;DHT22;42884;50.718;4.630;2022-11-11T04:16:22;8.00;99.90
23873;DHT22;42884;50.718;4.630;2022-11-11T04:18:48;8.00;99.90
23873;DHT22;42884;50.718;4.630;2022-11-11T04:21:32;8.00;99.90
23873;DHT22;42884;50.718;4.630;2022-11-11T04:24:11;7.90;99.90
23873;DHT22;42884;50.718;4.630;2022-11-11T04:26:56;7.80;99.90
23873;DHT22;42884;50.718;4.630;2022-11-11T04:29:22;7.80;99.90
23873;DHT22;42884;50.718;4.630;2022-11-11T04:32:00;7.80;99.90
23873;DHT22;42884;50.718;4.630;2022-11-11T04:34:45;7.70;99.90
23873;DHT22;42884;50.718;4.630;2022-11-11T04:37:11;7.60;99.90
23873;DHT22;42884;50.718;4.630;2022-11-11T04:39:37;7.60;99.90
23873;DHT22;42884;50.718;4.630;2022-11-11T04:42:22;7.60;99.90
23873;DHT22;42884;50.718;4.630;2022-11-11T04:44:47;7.50;99.90
23873;DHT22;42884;50.718;4.630;2022-11-11T04:47:31;7.50;99.90
23873;DHT22;42884;50.718;4.630;2022-11-11T04:49:57;7.50;99.90
23873;DHT22;42884;50.718;4.630;2022-11-11T04:52:23;7.40;99.90
23873;DHT22;42884;50.718;4.630;2022-11-11T04:54:51;7.30;99.90
23873;DHT22;42884;50.718;4.630;2022-11-11T04:57:42;7.30;99.90
23873;DHT22;42884;50.718;4.630;2022-11-11T05:00:09;7.20;99.90
23873;DHT22;42884;50.718;4.630;2022-11-11T05:02:35;7.20;99.90
23873;DHT22;42884;50.718;4.630;2022-11-11T05:05:18;7.20;99.90
23873;DHT22;42884;50.718;4.630;2022-11-11T05:07:44;7.20;99.90
23873;DHT22;42884;50.718;4.630;2022-11-11T05:10:28;7.20;99.90
23873;DHT22;42884;50.718;4.630;2022-11-11T05:12:54;7.10;99.90
23873;DHT22;42884;50.718;4.630;2022-11-11T05:15:41;7.10;99.90
23873;DHT22;42884;50.718;4.630;2022-11-11T05:18:25;7.10;99.90
23873;DHT22;42884;50.718;4.630;2022-11-11T05:21:11;7.00;99.90
23873;DHT22;42884;50.718;4.630;2022-11-11T05:23:48;7.00;99.90
23873;DHT22;42884;50.718;4.630;2022-11-11T05:26:32;7.00;99.90
23873;DHT22;42884;50.718;4.630;2022-11-11T05:28:57;7.00;99.90
23873;DHT22;42884;50.718;4.630;2022-11-11T05:31:23;6.90;99.90
23873;DHT22;42884;50.718;4.630;2022-11-11T05:33:48;6.90;99.90
23873;DHT22;42884;50.718;4.630;2022-11-11T05:36:14;6.90;99.90
23873;DHT22;42884;50.718;4.630;2022-11-11T05:38:40;6.90;99.90
23873;DHT22;42884;50.718;4.630;2022-11-11T05:41:05;6.90;99.90
23873;DHT22;42884;50.718;4.630;2022-11-11T05:43:31;6.90;99.90
23873;DHT22;42884;50.718;4.630;2022-11-11T05:45:57;6.90;99.90
23873;DHT22;42884;50.718;4.630;2022-11-11T05:48:22;6.90;99.90
23873;DHT22;42884;50.718;4.630;2022-11-11T05:50:48;6.80;99.90
23873;DHT22;42884;50.718;4.630;2022-11-11T05:53:13;6.80;99.90
23873;DHT22;42884;50.718;4.630;2022-11-11T05:55:39;6.80;99.90
23873;DHT22;42884;50.718;4.630;2022-11-11T05:58:05;6.80;99.90
23873;DHT22;42884;50.718;4.630;2022-11-11T06:00:30;6.70;99.90
23873;DHT22;42884;50.718;4.630;2022-11-11T06:03:02;6.70;99.90
23873;DHT22;42884;50.718;4.630;2022-11-11T06:05:28;6.70;99.90
23873;DHT22;42884;50.718;4.630;2022-11-11T06:07:54;6.70;99.90
23873;DHT22;42884;50.718;4.630;2022-11-11T06:10:19;6.70;99.90
23873;DHT22;42884;50.718;4.630;2022-11-11T06:12:57;6.60;99.90
23873;DHT22;42884;50.718;4.630;2022-11-11T06:15:27;6.60;99.90
23873;DHT22;42884;50.718;4.630;2022-11-11T06:17:52;6.60;99.90
23873;DHT22;42884;50.718;4.630;2022-11-11T06:20:18;6.50;99.90
23873;DHT22;42884;50.718;4.630;2022-11-11T06:22:43;6.50;99.90
23873;DHT22;42884;50.718;4.630;2022-11-11T06:25:27;6.50;99.90
23873;DHT22;42884;50.718;4.630;2022-11-11T06:28:11;6.50;99.90
23873;DHT22;42884;50.718;4.630;2022-11-11T06:30:37;6.50;99.90
23873;DHT22;42884;50.718;4.630;2022-11-11T06:33:03;6.50;99.90
23873;DHT22;42884;50.718;4.630;2022-11-11T06:35:29;6.50;99.90
23873;DHT22;42884;50.718;4.630;2022-11-11T06:37:54;6.40;99.90
23873;DHT22;42884;50.718;4.630;2022-11-11T06:40:20;6.40;99.90
23873;DHT22;42884;50.718;4.630;2022-11-11T06:42:45;6.30;99.90
23873;DHT22;42884;50.718;4.630;2022-11-11T06:45:11;6.40;99.90
23873;DHT22;42884;50.718;4.630;2022-11-11T06:47:36;6.30;99.90
23873;DHT22;42884;50.718;4.630;2022-11-11T06:50:02;6.30;99.90
23873;DHT22;42884;50.718;4.630;2022-11-11T06:52:28;6.30;99.90
23873;DHT22;42884;50.718;4.630;2022-11-11T06:54:53;6.30;99.90
23873;DHT22;42884;50.718;4.630;2022-11-11T06:57:21;6.30;99.90
23873;DHT22;42884;50.718;4.630;2022-11-11T06:59:47;6.30;99.90
23873;DHT22;42884;50.718;4.630;2022-11-11T07:02:12;6.30;99.90
23873;DHT22;42884;50.718;4.630;2022-11-11T07:04:38;6.20;99.90
23873;DHT22;42884;50.718;4.630;2022-11-11T07:07:04;6.20;99.90
23873;DHT22;42884;50.718;4.630;2022-11-11T07:09:29;6.20;99.90
23873;DHT22;42884;50.718;4.630;2022-11-11T07:11:55;6.30;99.90
23873;DHT22;42884;50.718;4.630;2022-11-11T07:14:20;6.30;99.90
23873;DHT22;42884;50.718;4.630;2022-11-11T07:16:46;6.40;99.90
23873;DHT22;42884;50.718;4.630;2022-11-11T07:19:12;6.40;99.90
23873;DHT22;42884;50.718;4.630;2022-11-11T07:21:37;6.50;99.90
23873;DHT22;42884;50.718;4.630;2022-11-11T07:24:03;6.60;99.90
23873;DHT22;42884;50.718;4.630;2022-11-11T07:26:29;6.70;99.90
23873;DHT22;42884;50.718;4.630;2022-11-11T07:28:54;6.70;99.90
23873;DHT22;42884;50.718;4.630;2022-11-11T07:31:20;6.80;99.90
23873;DHT22;42884;50.718;4.630;2022-11-11T07:33:45;6.90;99.90
23873;DHT22;42884;50.718;4.630;2022-11-11T07:36:11;7.00;99.90
23873;DHT22;42884;50.718;4.630;2022-11-11T07:38:36;7.10;99.90
23873;DHT22;42884;50.718;4.630;2022-11-11T07:41:02;7.20;99.90
23873;DHT22;42884;50.718;4.630;2022-11-11T07:43:28;7.30;99.90
23873;DHT22;42884;50.718;4.630;2022-11-11T07:45:53;7.50;99.90
23873;DHT22;42884;50.718;4.630;2022-11-11T07:48:19;7.70;99.90
23873;DHT22;42884;50.718;4.630;2022-11-11T07:50:44;7.80;99.90
23873;DHT22;42884;50.718;4.630;2022-11-11T07:53:10;7.90;99.90
23873;DHT22;42884;50.718;4.630;2022-11-11T07:55:36;8.00;99.90
23873;DHT22;42884;50.718;4.630;2022-11-11T07:58:01;8.00;99.90
23873;DHT22;42884;50.718;4.630;2022-11-11T08:00:27;8.10;99.90
23873;DHT22;42884;50.718;4.630;2022-11-11T08:02:53;8.20;99.90
23873;DHT22;42884;50.718;4.630;2022-11-11T08:05:18;8.30;99.90
23873;DHT22;42884;50.718;4.630;2022-11-11T08:07:44;8.40;99.90
23873;DHT22;42884;50.718;4.630;2022-11-11T08:10:10;8.50;99.90
23873;DHT22;42884;50.718;4.630;2022-11-11T08:12:36;8.60;99.90
23873;DHT22;42884;50.718;4.630;2022-11-11T08:15:20;8.60;99.90
23873;DHT22;42884;50.718;4.630;2022-11-11T08:17:45;8.80;99.90
23873;DHT22;42884;50.718;4.630;2022-11-11T08:20:11;8.80;99.90
23873;DHT22;42884;50.718;4.630;2022-11-11T08:22:37;8.90;99.90
23873;DHT22;42884;50.718;4.630;2022-11-11T08:25:04;9.00;99.90
23873;DHT22;42884;50.718;4.630;2022-11-11T08:27:30;9.10;99.90
23873;DHT22;42884;50.718;4.630;2022-11-11T08:29:56;9.20;99.90
23873;DHT22;42884;50.718;4.630;2022-11-11T08:32:21;9.30;99.90
23873;DHT22;42884;50.718;4.630;2022-11-11T08:34:47;9.30;99.90
23873;DHT22;42884;50.718;4.630;2022-11-11T08:37:12;9.40;99.90
23873;DHT22;42884;50.718;4.630;2022-11-11T08:39:38;9.40;99.90
23873;DHT22;42884;50.718;4.630;2022-11-11T08:42:03;9.50;99.90
23873;DHT22;42884;50.718;4.630;2022-11-11T08:44:29;9.70;99.90
23873;DHT22;42884;50.718;4.630;2022-11-11T08:46:54;9.80;99.90
23873;DHT22;42884;50.718;4.630;2022-11-11T08:49:20;9.80;99.90
23873;DHT22;42884;50.718;4.630;2022-11-11T08:51:45;9.80;99.90
23873;DHT22;42884;50.718;4.630;2022-11-11T08:54:11;10.00;99.90
23873;DHT22;42884;50.718;4.630;2022-11-11T08:56:37;10.00;99.90
23873;DHT22;42884;50.718;4.630;2022-11-11T08:59:02;10.00;99.90
23873;DHT22;42884;50.718;4.630;2022-11-11T09:01:28;10.00;99.90
23873;DHT22;42884;50.718;4.630;2022-11-11T09:03:53;10.00;99.90
23873;DHT22;42884;50.718;4.630;2022-11-11T09:06:19;10.10;99.90
23873;DHT22;42884;50.718;4.630;2022-11-11T09:08:44;10.10;99.90
23873;DHT22;42884;50.718;4.630;2022-11-11T09:11:11;10.20;99.90
23873;DHT22;42884;50.718;4.630;2022-11-11T09:13:36;10.40;99.90
23873;DHT22;42884;50.718;4.630;2022-11-11T09:16:02;10.50;99.90
23873;DHT22;42884;50.718;4.630;2022-11-11T09:18:27;10.50;99.90
23873;DHT22;42884;50.718;4.630;2022-11-11T09:20:58;10.60;99.90
23873;DHT22;42884;50.718;4.630;2022-11-11T09:23:25;10.90;99.90
23873;DHT22;42884;50.718;4.630;2022-11-11T09:25:50;11.30;99.90
23873;DHT22;42884;50.718;4.630;2022-11-11T09:28:16;11.60;99.90
23873;DHT22;42884;50.718;4.630;2022-11-11T09:30:41;11.80;99.90
23873;DHT22;42884;50.718;4.630;2022-11-11T09:33:07;11.90;99.90
23873;DHT22;42884;50.718;4.630;2022-11-11T09:35:33;11.90;99.90
23873;DHT22;42884;50.718;4.630;2022-11-11T09:38:00;12.00;99.90
23873;DHT22;42884;50.718;4.630;2022-11-11T09:40:27;12.10;99.90
23873;DHT22;42884;50.718;4.630;2022-11-11T09:45:55;12.10;99.90
23873;DHT22;42884;50.718;4.630;2022-11-11T09:50:52;11.90;99.90
23873;DHT22;42884;50.718;4.630;2022-11-11T09:53:21;11.80;99.90
23873;DHT22;42884;50.718;4.630;2022-11-11T09:58:32;11.80;99.90
23873;DHT22;42884;50.718;4.630;2022-11-11T10:01:04;11.90;99.90
23873;DHT22;42884;50.718;4.630;2022-11-11T10:03:32;11.80;99.90
23873;DHT22;42884;50.718;4.630;2022-11-11T10:06:02;11.90;99.90
23873;DHT22;42884;50.718;4.630;2022-11-11T10:08:30;11.90;99.90
23873;DHT22;42884;50.718;4.630;2022-11-11T10:10:58;11.80;99.90
23873;DHT22;42884;50.718;4.630;2022-11-11T10:13:32;11.80;99.90
23873;DHT22;42884;50.718;4.630;2022-11-11T10:16:03;11.90;99.90
23873;DHT22;42884;50.718;4.630;2022-11-11T10:18:35;12.00;99.90
23873;DHT22;42884;50.718;4.630;2022-11-11T10:21:07;12.20;99.90
23873;DHT22;42884;50.718;4.630;2022-11-11T10:23:37;12.40;99.90
23873;DHT22;42884;50.718;4.630;2022-11-11T10:26:05;12.50;99.90
23873;DHT22;42884;50.718;4.630;2022-11-11T10:28:34;12.70;99.90
23873;DHT22;42884;50.718;4.630;2022-11-11T10:31:01;12.70;99.90
23873;DHT22;42884;50.718;4.630;2022-11-11T10:33:32;12.80;99.90
23873;DHT22;42884;50.718;4.630;2022-11-11T10:35:59;13.10;99.90
23873;DHT22;42884;50.718;4.630;2022-11-11T10:40:51;13.60;99.90
23873;DHT22;42884;50.718;4.630;2022-11-11T10:43:25;13.90;99.90
23873;DHT22;42884;50.718;4.630;2022-11-11T10:46:04;13.90;99.90
23873;DHT22;42884;50.718;4.630;2022-11-11T10:48:43;13.80;99.90
23873;DHT22;42884;50.718;4.630;2022-11-11T10:51:13;14.00;99.90
23873;DHT22;42884;50.718;4.630;2022-11-11T10:53:53;14.20;99.90
23873;DHT22;42884;50.718;4.630;2022-11-11T10:56:26;14.50;99.90
23873;DHT22;42884;50.718;4.630;2022-11-11T10:58:59;14.80;99.90
23873;DHT22;42884;50.718;4.630;2022-11-11T11:01:29;15.40;99.90
23873;DHT22;42884;50.718;4.630;2022-11-11T11:03:57;15.60;99.90
23873;DHT22;42884;50.718;4.630;2022-11-11T11:06:25;15.70;99.90
23873;DHT22;42884;50.718;4.630;2022-11-11T11:09:00;15.70;99.90
23873;DHT22;42884;50.718;4.630;2022-11-11T11:11:29;15.60;99.90
23873;DHT22;42884;50.718;4.630;2022-11-11T11:13:59;15.40;99.90
23873;DHT22;42884;50.718;4.630;2022-11-11T11:16:26;15.30;99.90
23873;DHT22;42884;50.718;4.630;2022-11-11T11:21:50;15.70;99.90
23873;DHT22;42884;50.718;4.630;2022-11-11T11:24:22;15.90;99.90
23873;DHT22;42884;50.718;4.630;2022-11-11T11:26:48;15.90;99.90
23873;DHT22;42884;50.718;4.630;2022-11-11T11:29:35;15.90;99.90
23873;DHT22;42884;50.718;4.630;2022-11-11T11:32:20;16.10;99.90
23873;DHT22;42884;50.718;4.630;2022-11-11T11:34:55;16.50;99.90
23873;DHT22;42884;50.718;4.630;2022-11-11T11:37:21;17.00;99.90
23873;DHT22;42884;50.718;4.630;2022-11-11T11:39:47;17.00;99.90
23873;DHT22;42884;50.718;4.630;2022-11-11T11:44:51;17.50;99.90
23873;DHT22;42884;50.718;4.630;2022-11-11T12:00:34;18.50;99.90
23873;DHT22;42884;50.718;4.630;2022-11-11T12:21:13;18.90;99.90
23873;DHT22;42884;50.718;4.630;2022-11-11T12:23:48;18.70;99.90
23873;DHT22;42884;50.718;4.630;2022-11-11T12:31:27;18.50;99.90
23873;DHT22;42884;50.718;4.630;2022-11-11T12:34:00;18.50;99.90
23873;DHT22;42884;50.718;4.630;2022-11-11T12:42:05;18.80;99.90
23873;DHT22;42884;50.718;4.630;2022-11-11T12:45:37;18.80;99.90
23873;DHT22;42884;50.718;4.630;2022-11-11T12:47:46;18.60;99.90
23873;DHT22;42884;50.718;4.630;2022-11-11T13:00:39;18.70;99.90
23873;DHT22;42884;50.718;4.630;2022-11-11T13:03:14;18.80;99.90
23873;DHT22;42884;50.718;4.630;2022-11-11T13:05:46;19.20;99.90
23873;DHT22;42884;50.718;4.630;2022-11-11T13:10:56;19.80;99.90
23873;DHT22;42884;50.718;4.630;2022-11-11T13:13:34;20.10;99.90
23873;DHT22;42884;50.718;4.630;2022-11-11T13:16:02;20.00;99.90
23873;DHT22;42884;50.718;4.630;2022-11-11T13:18:48;19.80;99.90
23873;DHT22;42884;50.718;4.630;2022-11-11T13:21:19;19.70;99.90
23873;DHT22;42884;50.718;4.630;2022-11-11T13:23:47;19.60;99.90
23873;DHT22;42884;50.718;4.630;2022-11-11T13:26:22;19.30;99.90
23873;DHT22;42884;50.718;4.630;2022-11-11T13:28:50;19.10;99.90
23873;DHT22;42884;50.718;4.630;2022-11-11T13:31:20;18.60;99.90
23873;DHT22;42884;50.718;4.630;2022-11-11T13:33:51;18.30;99.90
23873;DHT22;42884;50.718;4.630;2022-11-11T13:36:18;18.50;99.90
23873;DHT22;42884;50.718;4.630;2022-11-11T13:41:09;18.10;99.90
23873;DHT22;42884;50.718;4.630;2022-11-11T13:43:42;18.20;99.90
23873;DHT22;42884;50.718;4.630;2022-11-11T13:48:49;18.30;99.90
23873;DHT22;42884;50.718;4.630;2022-11-11T13:53:47;18.40;99.90
23873;DHT22;42884;50.718;4.630;2022-11-11T13:56:24;18.60;99.90
23873;DHT22;42884;50.718;4.630;2022-11-11T13:58:50;18.50;99.90
23873;DHT22;42884;50.718;4.630;2022-11-11T14:01:17;18.40;99.90
23873;DHT22;42884;50.718;4.630;2022-11-11T14:11:25;17.90;99.90
23873;DHT22;42884;50.718;4.630;2022-11-11T14:26:58;17.20;99.90
23873;DHT22;42884;50.718;4.630;2022-11-11T14:29:26;16.90;99.90
23873;DHT22;42884;50.718;4.630;2022-11-11T14:32:05;16.90;99.90
23873;DHT22;42884;50.718;4.630;2022-11-11T14:34:36;16.80;99.90
23873;DHT22;42884;50.718;4.630;2022-11-11T14:37:15;16.30;99.90
23873;DHT22;42884;50.718;4.630;2022-11-11T14:39:50;16.40;99.90
23873;DHT22;42884;50.718;4.630;2022-11-11T14:45:00;16.40;99.90
23873;DHT22;42884;50.718;4.630;2022-11-11T14:47:32;16.30;99.90
23873;DHT22;42884;50.718;4.630;2022-11-11T14:49:58;16.30;99.90
23873;DHT22;42884;50.718;4.630;2022-11-11T14:57:37;15.90;99.90
23873;DHT22;42884;50.718;4.630;2022-11-11T15:00:17;15.80;99.90
23873;DHT22;42884;50.718;4.630;2022-11-11T15:03:26;15.70;99.90
23873;DHT22;42884;50.718;4.630;2022-11-11T15:07:59;15.40;99.90
23873;DHT22;42884;50.718;4.630;2022-11-11T15:10:28;15.40;99.90
23873;DHT22;42884;50.718;4.630;2022-11-11T15:13:08;15.10;99.90
23873;DHT22;42884;50.718;4.630;2022-11-11T15:18:18;14.90;99.90
23873;DHT22;42884;50.718;4.630;2022-11-11T15:20:51;14.70;99.90
23873;DHT22;42884;50.718;4.630;2022-11-11T15:38:13;14.10;99.90
23873;DHT22;42884;50.718;4.630;2022-11-11T15:40:46;14.00;99.90
23873;DHT22;42884;50.718;4.630;2022-11-11T15:43:17;13.90;99.90
23873;DHT22;42884;50.718;4.630;2022-11-11T15:45:44;13.70;99.90
23873;DHT22;42884;50.718;4.630;2022-11-11T15:48:26;13.60;99.90
23873;DHT22;42884;50.718;4.630;2022-11-11T15:50:53;13.60;99.90
23873;DHT22;42884;50.718;4.630;2022-11-11T15:53:23;13.40;99.90
23873;DHT22;42884;50.718;4.630;2022-11-11T15:55:53;13.30;99.90
23873;DHT22;42884;50.718;4.630;2022-11-11T15:58:29;13.10;99.90
23873;DHT22;42884;50.718;4.630;2022-11-11T16:00:56;13.00;99.90
23873;DHT22;42884;50.718;4.630;2022-11-11T16:03:28;12.90;99.90
23873;DHT22;42884;50.718;4.630;2022-11-11T16:05:55;12.80;99.90
23873;DHT22;42884;50.718;4.630;2022-11-11T16:08:21;12.60;99.90
23873;DHT22;42884;50.718;4.630;2022-11-11T16:10:51;12.50;99.90
23873;DHT22;42884;50.718;4.630;2022-11-11T16:13:23;12.40;99.90
23873;DHT22;42884;50.718;4.630;2022-11-11T16:16:10;12.40;99.90
23873;DHT22;42884;50.718;4.630;2022-11-11T16:21:05;12.10;99.90
23873;DHT22;42884;50.718;4.630;2022-11-11T16:23:31;12.00;99.90
23873;DHT22;42884;50.718;4.630;2022-11-11T16:25:58;12.00;99.90
23873;DHT22;42884;50.718;4.630;2022-11-11T16:28:24;11.90;99.90
23873;DHT22;42884;50.718;4.630;2022-11-11T16:30:50;11.80;99.90
23873;DHT22;42884;50.718;4.630;2022-11-11T16:35:44;11.60;99.90
23873;DHT22;42884;50.718;4.630;2022-11-11T16:38:10;11.60;99.90
23873;DHT22;42884;50.718;4.630;2022-11-11T16:40:41;11.50;99.90
23873;DHT22;42884;50.718;4.630;2022-11-11T16:43:15;11.40;99.90
23873;DHT22;42884;50.718;4.630;2022-11-11T16:45:45;11.30;99.90
23873;DHT22;42884;50.718;4.630;2022-11-11T16:50:56;11.10;99.90
23873;DHT22;42884;50.718;4.630;2022-11-11T16:53:24;11.10;99.90
23873;DHT22;42884;50.718;4.630;2022-11-11T16:55:51;10.90;99.90
23873;DHT22;42884;50.718;4.630;2022-11-11T16:58:18;10.80;99.90
23873;DHT22;42884;50.718;4.630;2022-11-11T17:00:44;10.80;99.90
23873;DHT22;42884;50.718;4.630;2022-11-11T17:03:18;10.70;99.90
23873;DHT22;42884;50.718;4.630;2022-11-11T17:08:35;10.60;99.90
23873;DHT22;42884;50.718;4.630;2022-11-11T17:11:02;10.50;99.90
23873;DHT22;42884;50.718;4.630;2022-11-11T17:13:28;10.40;99.90
23873;DHT22;42884;50.718;4.630;2022-11-11T17:15:54;10.40;99.90
23873;DHT22;42884;50.718;4.630;2022-11-11T17:18:20;10.40;99.90
23873;DHT22;42884;50.718;4.630;2022-11-11T17:20:46;10.30;99.90
23873;DHT22;42884;50.718;4.630;2022-11-11T17:23:11;10.20;99.90
23873;DHT22;42884;50.718;4.630;2022-11-11T17:25:37;10.20;99.90
23873;DHT22;42884;50.718;4.630;2022-11-11T17:28:03;10.20;99.90
23873;DHT22;42884;50.718;4.630;2022-11-11T17:30:28;10.10;99.90
23873;DHT22;42884;50.718;4.630;2022-11-11T17:32:54;10.00;99.90
23873;DHT22;42884;50.718;4.630;2022-11-11T17:35:19;10.00;99.90
23873;DHT22;42884;50.718;4.630;2022-11-11T17:37:45;10.00;99.90
23873;DHT22;42884;50.718;4.630;2022-11-11T17:40:10;10.00;99.90
23873;DHT22;42884;50.718;4.630;2022-11-11T17:42:36;10.00;99.90
23873;DHT22;42884;50.718;4.630;2022-11-11T17:45:02;10.00;99.90
23873;DHT22;42884;50.718;4.630;2022-11-11T17:47:28;9.90;99.90
23873;DHT22;42884;50.718;4.630;2022-11-11T17:49:54;9.90;99.90
23873;DHT22;42884;50.718;4.630;2022-11-11T17:52:19;9.80;99.90
23873;DHT22;42884;50.718;4.630;2022-11-11T17:54:45;9.80;99.90
23873;DHT22;42884;50.718;4.630;2022-11-11T17:57:10;9.80;99.90
23873;DHT22;42884;50.718;4.630;2022-11-11T17:59:36;9.80;99.90
23873;DHT22;42884;50.718;4.630;2022-11-11T18:02:01;9.80;99.90
23873;DHT22;42884;50.718;4.630;2022-11-11T18:04:27;9.70;99.90
23873;DHT22;42884;50.718;4.630;2022-11-11T18:06:52;9.60;99.90
23873;DHT22;42884;50.718;4.630;2022-11-11T18:09:18;9.50;99.90
23873;DHT22;42884;50.718;4.630;2022-11-11T18:11:44;9.50;99.90
23873;DHT22;42884;50.718;4.630;2022-11-11T18:14:09;9.40;99.90